sensor_id;sensor_type;location;lat;lon;timestamp;pressure;altitude;pressure_sealevel;temperature;humidity
71145;BME280;58812;47.698;17.726;2022-12-11T00:01:58;98624.16;;;-0.16;100.00
71145;BME280;58812;47.698;17.726;2022-12-11T00:04:23;98633.12;;;-0.18;100.00
71145;BME280;58812;47.698;17.726;2022-12-11T00:06:49;98630.38;;;-0.17;100.00
71145;BME280;58812;47.698;17.726;2022-12-11T00:09:19;98622.37;;;-0.15;100.00
71145;BME280;58812;47.698;17.726;2022-12-11T00:11:45;98633.38;;;-0.10;100.00
71145;BME280;58812;47.698;17.726;2022-12-11T00:14:11;98629.53;;;-0.06;100.00
71145;BME280;58812;47.698;17.726;2022-12-11T00:16:37;98628.59;;;-0.05;100.00
71145;BME280;58812;47.698;17.726;2022-12-11T00:19:03;98630.84;;;-0.01;100.00
71145;BME280;58812;47.698;17.726;2022-12-11T00:21:29;98632.62;;;-0.01;100.00
71145;BME280;58812;47.698;17.726;2022-12-11T00:23:55;98625.50;;;0.01;100.00
71145;BME280;58812;47.698;17.726;2022-12-11T00:26:20;98612.06;;;0.04;100.00
71145;BME280;58812;47.698;17.726;2022-12-11T00:28:47;98618.78;;;0.08;100.00
71145;BME280;58812;47.698;17.726;2022-12-11T00:31:17;98607.28;;;0.09;100.00
71145;BME280;58812;47.698;17.726;2022-12-11T00:33:43;98609.69;;;0.12;100.00
71145;BME280;58812;47.698;17.726;2022-12-11T00:36:16;98612.78;;;0.17;100.00
71145;BME280;58812;47.698;17.726;2022-12-11T00:38:42;98621.41;;;0.19;100.00
71145;BME280;58812;47.698;17.726;2022-12-11T00:41:09;98624.75;;;0.21;100.00
71145;BME280;58812;47.698;17.726;2022-12-11T00:43:35;98612.06;;;0.26;100.00
71145;BME280;58812;47.698;17.726;2022-12-11T00:46:00;98613.50;;;0.31;100.00
71145;BME280;58812;47.698;17.726;2022-12-11T00:48:26;98610.97;;;0.29;100.00
71145;BME280;58812;47.698;17.726;2022-12-11T00:50:51;98621.87;;;0.36;100.00
71145;BME280;58812;47.698;17.726;2022-12-11T00:53:17;98623.13;;;0.41;100.00
71145;BME280;58812;47.698;17.726;2022-12-11T00:55:42;98618.75;;;0.42;100.00
71145;BME280;58812;47.698;17.726;2022-12-11T00:58:10;98628.31;;;0.43;100.00
71145;BME280;58812;47.698;17.726;2022-12-11T01:00:36;98637.50;;;0.48;100.00
71145;BME280;58812;47.698;17.726;2022-12-11T01:03:02;98630.81;;;0.44;100.00
71145;BME280;58812;47.698;17.726;2022-12-11T01:05:28;98629.34;;;0.51;100.00
71145;BME280;58812;47.698;17.726;2022-12-11T01:07:53;98631.16;;;0.51;100.00
71145;BME280;58812;47.698;17.726;2022-12-11T01:10:19;98630.09;;;0.53;100.00
71145;BME280;58812;47.698;17.726;2022-12-11T01:15:16;98627.56;;;0.52;100.00
71145;BME280;58812;47.698;17.726;2022-12-11T01:17:42;98648.62;;;0.52;100.00
71145;BME280;58812;47.698;17.726;2022-12-11T01:20:07;98643.69;;;0.59;100.00
71145;BME280;58812;47.698;17.726;2022-12-11T01:22:33;98638.19;;;0.62;100.00
71145;BME280;58812;47.698;17.726;2022-12-11T01:24:58;98636.37;;;0.62;100.00
71145;BME280;58812;47.698;17.726;2022-12-11T01:27:23;98636.53;;;0.61;100.00
71145;BME280;58812;47.698;17.726;2022-12-11T01:29:49;98629.19;;;0.64;100.00
71145;BME280;58812;47.698;17.726;2022-12-11T01:32:15;98636.25;;;0.64;100.00
71145;BME280;58812;47.698;17.726;2022-12-11T01:34:40;98636.72;;;0.69;100.00
71145;BME280;58812;47.698;17.726;2022-12-11T01:37:06;98635.19;;;0.66;100.00
71145;BME280;58812;47.698;17.726;2022-12-11T01:39:31;98643.19;;;0.65;100.00
71145;BME280;58812;47.698;17.726;2022-12-11T01:41:58;98653.00;;;0.74;100.00
71145;BME280;58812;47.698;17.726;2022-12-11T01:46:49;98658.72;;;0.79;100.00
71145;BME280;58812;47.698;17.726;2022-12-11T01:49:16;98649.66;;;0.72;100.00
71145;BME280;58812;47.698;17.726;2022-12-11T01:51:51;98645.22;;;0.72;100.00
71145;BME280;58812;47.698;17.726;2022-12-11T01:54:19;98652.87;;;0.75;100.00
71145;BME280;58812;47.698;17.726;2022-12-11T01:56:47;98651.91;;;0.76;100.00
71145;BME280;58812;47.698;17.726;2022-12-11T01:59:17;98653.81;;;0.74;100.00
71145;BME280;58812;47.698;17.726;2022-12-11T02:02:28;98661.59;;;0.76;100.00
71145;BME280;58812;47.698;17.726;2022-12-11T02:04:37;98660.03;;;0.85;100.00
71145;BME280;58812;47.698;17.726;2022-12-11T02:07:03;98651.66;;;0.79;100.00
71145;BME280;58812;47.698;17.726;2022-12-11T02:09:34;98664.84;;;0.79;100.00
71145;BME280;58812;47.698;17.726;2022-12-11T02:17:40;98661.00;;;0.84;100.00
71145;BME280;58812;47.698;17.726;2022-12-11T02:20:26;98661.69;;;0.86;100.00
71145;BME280;58812;47.698;17.726;2022-12-11T02:31:04;98666.72;;;0.89;100.00
71145;BME280;58812;47.698;17.726;2022-12-11T02:33:54;98661.56;;;0.87;100.00
71145;BME280;58812;47.698;17.726;2022-12-11T02:36:25;98663.12;;;0.90;100.00
71145;BME280;58812;47.698;17.726;2022-12-11T02:38:53;98655.34;;;0.88;100.00
71145;BME280;58812;47.698;17.726;2022-12-11T02:41:22;98652.84;;;0.87;100.00
71145;BME280;58812;47.698;17.726;2022-12-11T02:43:49;98645.63;;;0.89;100.00
71145;BME280;58812;47.698;17.726;2022-12-11T02:46:16;98640.12;;;0.92;100.00
71145;BME280;58812;47.698;17.726;2022-12-11T02:48:44;98631.75;;;0.87;100.00
71145;BME280;58812;47.698;17.726;2022-12-11T02:51:13;98644.69;;;0.90;100.00
71145;BME280;58812;47.698;17.726;2022-12-11T02:53:41;98633.19;;;0.91;100.00
71145;BME280;58812;47.698;17.726;2022-12-11T02:56:19;98629.72;;;0.90;100.00
71145;BME280;58812;47.698;17.726;2022-12-11T02:58:56;98616.78;;;0.87;100.00
71145;BME280;58812;47.698;17.726;2022-12-11T03:01:24;98631.53;;;0.90;100.00
71145;BME280;58812;47.698;17.726;2022-12-11T03:03:49;98620.16;;;0.89;100.00
71145;BME280;58812;47.698;17.726;2022-12-11T03:06:18;98633.75;;;0.94;100.00
71145;BME280;58812;47.698;17.726;2022-12-11T03:08:44;98627.91;;;0.91;100.00
71145;BME280;58812;47.698;17.726;2022-12-11T03:11:10;98623.81;;;0.98;100.00
71145;BME280;58812;47.698;17.726;2022-12-11T03:13:37;98628.37;;;0.96;100.00
71145;BME280;58812;47.698;17.726;2022-12-11T03:16:13;98635.44;;;0.95;100.00
71145;BME280;58812;47.698;17.726;2022-12-11T03:24:17;98613.50;;;0.95;100.00
71145;BME280;58812;47.698;17.726;2022-12-11T03:26:59;98619.66;;;0.95;100.00
71145;BME280;58812;47.698;17.726;2022-12-11T03:29:46;98628.63;;;0.93;100.00
71145;BME280;58812;47.698;17.726;2022-12-11T03:32:20;98638.19;;;0.94;100.00
71145;BME280;58812;47.698;17.726;2022-12-11T03:34:58;98626.94;;;0.92;100.00
71145;BME280;58812;47.698;17.726;2022-12-11T03:37:27;98635.44;;;0.95;100.00
71145;BME280;58812;47.698;17.726;2022-12-11T03:39:58;98636.37;;;0.94;100.00
71145;BME280;58812;47.698;17.726;2022-12-11T03:42:26;98640.00;;;0.93;100.00
71145;BME280;58812;47.698;17.726;2022-12-11T03:44:53;98644.28;;;0.94;100.00
71145;BME280;58812;47.698;17.726;2022-12-11T03:47:23;98636.53;;;0.93;100.00
71145;BME280;58812;47.698;17.726;2022-12-11T03:49:50;98631.84;;;0.96;100.00
71145;BME280;58812;47.698;17.726;2022-12-11T03:52:17;98636.03;;;0.99;99.90
71145;BME280;58812;47.698;17.726;2022-12-11T03:54:45;98641.28;;;0.99;100.00
71145;BME280;58812;47.698;17.726;2022-12-11T03:57:14;98625.84;;;0.94;100.00
71145;BME280;58812;47.698;17.726;2022-12-11T03:59:41;98634.72;;;0.93;100.00
71145;BME280;58812;47.698;17.726;2022-12-11T04:02:06;98631.25;;;0.93;100.00
71145;BME280;58812;47.698;17.726;2022-12-11T04:04:39;98631.03;;;0.96;100.00
71145;BME280;58812;47.698;17.726;2022-12-11T04:07:05;98630.19;;;0.95;100.00
71145;BME280;58812;47.698;17.726;2022-12-11T04:09:31;98634.34;;;0.98;99.60
71145;BME280;58812;47.698;17.726;2022-12-11T04:11:57;98630.88;;;0.97;100.00
71145;BME280;58812;47.698;17.726;2022-12-11T04:14:22;98629.09;;;0.98;99.72
71145;BME280;58812;47.698;17.726;2022-12-11T04:17:06;98629.09;;;0.98;99.71
71145;BME280;58812;47.698;17.726;2022-12-11T04:19:31;98630.75;;;0.99;99.58
71145;BME280;58812;47.698;17.726;2022-12-11T04:22:17;98632.22;;;0.92;100.00
71145;BME280;58812;47.698;17.726;2022-12-11T04:25:03;98644.87;;;0.98;99.41
71145;BME280;58812;47.698;17.726;2022-12-11T04:27:29;98646.88;;;1.05;98.16
71145;BME280;58812;47.698;17.726;2022-12-11T04:30:21;98682.94;;;1.05;98.59
71145;BME280;58812;47.698;17.726;2022-12-11T04:32:47;98662.13;;;1.02;98.93
71145;BME280;58812;47.698;17.726;2022-12-11T04:35:13;98664.03;;;1.00;98.92
71145;BME280;58812;47.698;17.726;2022-12-11T04:37:38;98668.38;;;1.01;99.33
71145;BME280;58812;47.698;17.726;2022-12-11T04:40:06;98667.78;;;0.97;99.29
71145;BME280;58812;47.698;17.726;2022-12-11T04:42:32;98672.34;;;0.95;99.95
71145;BME280;58812;47.698;17.726;2022-12-11T04:44:58;98672.06;;;0.98;99.44
71145;BME280;58812;47.698;17.726;2022-12-11T04:47:23;98683.22;;;1.02;98.80
71145;BME280;58812;47.698;17.726;2022-12-11T04:49:49;98695.16;;;1.06;98.06
71145;BME280;58812;47.698;17.726;2022-12-11T04:52:14;98702.97;;;1.08;97.82
71145;BME280;58812;47.698;17.726;2022-12-11T04:54:41;98702.34;;;1.04;98.89
71145;BME280;58812;47.698;17.726;2022-12-11T04:57:06;98706.66;;;1.05;98.56
71145;BME280;58812;47.698;17.726;2022-12-11T04:59:32;98696.13;;;1.05;98.02
71145;BME280;58812;47.698;17.726;2022-12-11T05:01:57;98711.09;;;1.04;98.22
71145;BME280;58812;47.698;17.726;2022-12-11T05:04:23;98717.34;;;1.03;98.67
71145;BME280;58812;47.698;17.726;2022-12-11T05:06:49;98704.53;;;0.99;99.15
71145;BME280;58812;47.698;17.726;2022-12-11T05:09:15;98717.00;;;0.97;99.21
71145;BME280;58812;47.698;17.726;2022-12-11T05:11:40;98716.88;;;0.98;99.38
71145;BME280;58812;47.698;17.726;2022-12-11T05:14:06;98739.12;;;0.94;100.00
71145;BME280;58812;47.698;17.726;2022-12-11T05:16:31;98725.25;;;0.92;100.00
71145;BME280;58812;47.698;17.726;2022-12-11T05:18:57;98748.00;;;0.93;100.00
71145;BME280;58812;47.698;17.726;2022-12-11T05:21:22;98741.91;;;0.93;100.00
71145;BME280;58812;47.698;17.726;2022-12-11T05:23:47;98738.56;;;0.91;100.00
71145;BME280;58812;47.698;17.726;2022-12-11T05:26:16;98745.88;;;0.87;100.00
71145;BME280;58812;47.698;17.726;2022-12-11T05:28:43;98758.56;;;0.93;100.00
71145;BME280;58812;47.698;17.726;2022-12-11T05:31:14;98750.50;;;0.95;100.00
71145;BME280;58812;47.698;17.726;2022-12-11T05:33:41;98743.56;;;0.94;100.00
71145;BME280;58812;47.698;17.726;2022-12-11T05:36:07;98746.94;;;0.96;99.65
71145;BME280;58812;47.698;17.726;2022-12-11T05:38:33;98734.72;;;0.95;99.65
71145;BME280;58812;47.698;17.726;2022-12-11T05:41:00;98749.44;;;0.97;99.01
71145;BME280;58812;47.698;17.726;2022-12-11T05:43:28;98752.56;;;1.02;97.88
71145;BME280;58812;47.698;17.726;2022-12-11T05:45:54;98750.87;;;1.01;98.02
71145;BME280;58812;47.698;17.726;2022-12-11T05:48:20;98759.16;;;0.97;99.53
71145;BME280;58812;47.698;17.726;2022-12-11T05:50:58;98757.22;;;0.99;98.70
71145;BME280;58812;47.698;17.726;2022-12-11T05:53:24;98750.06;;;1.01;98.31
71145;BME280;58812;47.698;17.726;2022-12-11T05:55:50;98743.34;;;0.97;98.55
71145;BME280;58812;47.698;17.726;2022-12-11T05:58:15;98732.34;;;0.92;99.70
71145;BME280;58812;47.698;17.726;2022-12-11T06:00:41;98733.03;;;0.94;99.18
71145;BME280;58812;47.698;17.726;2022-12-11T06:03:06;98737.34;;;0.95;98.75
71145;BME280;58812;47.698;17.726;2022-12-11T06:05:39;98735.56;;;0.95;98.53
71145;BME280;58812;47.698;17.726;2022-12-11T06:08:06;98750.50;;;0.95;98.62
71145;BME280;58812;47.698;17.726;2022-12-11T06:10:31;98756.03;;;0.92;99.25
71145;BME280;58812;47.698;17.726;2022-12-11T06:12:57;98770.19;;;0.91;99.37
71145;BME280;58812;47.698;17.726;2022-12-11T06:15:22;98764.19;;;0.89;100.00
71145;BME280;58812;47.698;17.726;2022-12-11T06:17:48;98760.72;;;0.88;99.63
71145;BME280;58812;47.698;17.726;2022-12-11T06:20:13;98769.34;;;0.90;98.74
71145;BME280;58812;47.698;17.726;2022-12-11T06:22:38;98749.34;;;0.88;98.93
71145;BME280;58812;47.698;17.726;2022-12-11T06:25:04;98767.69;;;0.89;99.25
71145;BME280;58812;47.698;17.726;2022-12-11T06:27:30;98766.09;;;0.87;99.29
71145;BME280;58812;47.698;17.726;2022-12-11T06:29:55;98774.84;;;0.87;99.40
71145;BME280;58812;47.698;17.726;2022-12-11T06:32:21;98778.31;;;0.88;99.14
71145;BME280;58812;47.698;17.726;2022-12-11T06:34:46;98787.78;;;0.90;98.48
71145;BME280;58812;47.698;17.726;2022-12-11T06:37:12;98787.19;;;0.87;99.63
71145;BME280;58812;47.698;17.726;2022-12-11T06:39:37;98793.28;;;0.87;99.38
71145;BME280;58812;47.698;17.726;2022-12-11T06:42:03;98797.59;;;0.88;98.85
71145;BME280;58812;47.698;17.726;2022-12-11T06:44:28;98801.19;;;0.87;99.03
71145;BME280;58812;47.698;17.726;2022-12-11T06:46:54;98810.66;;;0.90;98.44
71145;BME280;58812;47.698;17.726;2022-12-11T06:49:19;98806.34;;;0.89;98.88
71145;BME280;58812;47.698;17.726;2022-12-11T06:51:45;98799.16;;;0.91;98.44
71145;BME280;58812;47.698;17.726;2022-12-11T06:54:10;98805.41;;;0.90;98.51
71145;BME280;58812;47.698;17.726;2022-12-11T06:56:35;98814.22;;;0.89;98.37
71145;BME280;58812;47.698;17.726;2022-12-11T06:59:01;98810.75;;;0.88;98.97
71145;BME280;58812;47.698;17.726;2022-12-11T07:01:27;98809.94;;;0.88;98.82
71145;BME280;58812;47.698;17.726;2022-12-11T07:03:57;98812.69;;;0.86;99.17
71145;BME280;58812;47.698;17.726;2022-12-11T07:06:23;98823.59;;;0.82;99.97
71145;BME280;58812;47.698;17.726;2022-12-11T07:08:49;98814.84;;;0.81;100.00
71145;BME280;58812;47.698;17.726;2022-12-11T07:11:16;98830.78;;;0.79;100.00
71145;BME280;58812;47.698;17.726;2022-12-11T07:13:42;98833.75;;;0.75;100.00
71145;BME280;58812;47.698;17.726;2022-12-11T07:16:10;98836.53;;;0.73;100.00
71145;BME280;58812;47.698;17.726;2022-12-11T07:18:37;98833.41;;;0.68;100.00
71145;BME280;58812;47.698;17.726;2022-12-11T07:21:04;98843.34;;;0.65;100.00
71145;BME280;58812;47.698;17.726;2022-12-11T07:23:30;98852.09;;;0.65;100.00
71145;BME280;58812;47.698;17.726;2022-12-11T07:25:56;98858.28;;;0.64;100.00
71145;BME280;58812;47.698;17.726;2022-12-11T07:28:22;98864.78;;;0.60;100.00
71145;BME280;58812;47.698;17.726;2022-12-11T07:30:47;98868.13;;;0.62;100.00
71145;BME280;58812;47.698;17.726;2022-12-11T07:33:13;98875.31;;;0.60;100.00
71145;BME280;58812;47.698;17.726;2022-12-11T07:35:38;98862.97;;;0.61;100.00
71145;BME280;58812;47.698;17.726;2022-12-11T07:38:04;98856.88;;;0.60;100.00
71145;BME280;58812;47.698;17.726;2022-12-11T07:40:29;98874.56;;;0.58;100.00
71145;BME280;58812;47.698;17.726;2022-12-11T07:42:54;98865.97;;;0.56;100.00
71145;BME280;58812;47.698;17.726;2022-12-11T07:45:20;98871.22;;;0.56;100.00
71145;BME280;58812;47.698;17.726;2022-12-11T07:47:45;98874.81;;;0.55;100.00
71145;BME280;58812;47.698;17.726;2022-12-11T07:50:11;98877.59;;;0.53;100.00
71145;BME280;58812;47.698;17.726;2022-12-11T07:52:36;98898.53;;;0.55;100.00
71145;BME280;58812;47.698;17.726;2022-12-11T07:55:02;98903.91;;;0.53;100.00
71145;BME280;58812;47.698;17.726;2022-12-11T07:57:28;98902.13;;;0.54;100.00
71145;BME280;58812;47.698;17.726;2022-12-11T07:59:53;98915.28;;;0.54;100.00
71145;BME280;58812;47.698;17.726;2022-12-11T08:02:19;98924.09;;;0.53;100.00
71145;BME280;58812;47.698;17.726;2022-12-11T08:04:46;98919.72;;;0.53;100.00
71145;BME280;58812;47.698;17.726;2022-12-11T08:07:11;98915.16;;;0.56;100.00
71145;BME280;58812;47.698;17.726;2022-12-11T08:09:37;98916.94;;;0.55;100.00
71145;BME280;58812;47.698;17.726;2022-12-11T08:12:03;98924.72;;;0.57;100.00
71145;BME280;58812;47.698;17.726;2022-12-11T08:14:28;98919.34;;;0.58;100.00
71145;BME280;58812;47.698;17.726;2022-12-11T08:16:53;98921.13;;;0.58;100.00
71145;BME280;58812;47.698;17.726;2022-12-11T08:19:19;98920.78;;;0.62;100.00
71145;BME280;58812;47.698;17.726;2022-12-11T08:21:45;98917.94;;;0.65;100.00
71145;BME280;58812;47.698;17.726;2022-12-11T08:24:10;98917.94;;;0.65;100.00
71145;BME280;58812;47.698;17.726;2022-12-11T08:26:36;98926.56;;;0.67;100.00
71145;BME280;58812;47.698;17.726;2022-12-11T08:29:02;98908.00;;;0.69;100.00
71145;BME280;58812;47.698;17.726;2022-12-11T08:31:28;98909.06;;;0.66;100.00
71145;BME280;58812;47.698;17.726;2022-12-11T08:33:54;98907.88;;;0.70;100.00
71145;BME280;58812;47.698;17.726;2022-12-11T08:36:21;98912.19;;;0.71;100.00
71145;BME280;58812;47.698;17.726;2022-12-11T08:38:47;98919.00;;;0.74;100.00
71145;BME280;58812;47.698;17.726;2022-12-11T08:41:24;98932.53;;;0.69;100.00
71145;BME280;58812;47.698;17.726;2022-12-11T08:43:50;98932.53;;;0.69;100.00
71145;BME280;58812;47.698;17.726;2022-12-11T08:46:21;98930.50;;;0.73;100.00
71145;BME280;58812;47.698;17.726;2022-12-11T08:48:48;98935.53;;;0.76;100.00
71145;BME280;58812;47.698;17.726;2022-12-11T08:51:16;98942.72;;;0.74;100.00
71145;BME280;58812;47.698;17.726;2022-12-11T08:53:42;98965.47;;;0.75;100.00
71145;BME280;58812;47.698;17.726;2022-12-11T08:56:10;98938.06;;;0.77;100.00
71145;BME280;58812;47.698;17.726;2022-12-11T08:58:36;98943.69;;;0.84;100.00
71145;BME280;58812;47.698;17.726;2022-12-11T09:01:06;98946.44;;;0.83;100.00
71145;BME280;58812;47.698;17.726;2022-12-11T09:03:33;98951.81;;;0.81;100.00
71145;BME280;58812;47.698;17.726;2022-12-11T09:05:58;98948.34;;;0.80;100.00
71145;BME280;58812;47.698;17.726;2022-12-11T09:08:24;98947.19;;;0.85;100.00
71145;BME280;58812;47.698;17.726;2022-12-11T09:10:49;98952.09;;;0.89;100.00
71145;BME280;58812;47.698;17.726;2022-12-11T09:13:15;98948.38;;;0.92;100.00
71145;BME280;58812;47.698;17.726;2022-12-11T09:15:40;98951.25;;;1.00;100.00
71145;BME280;58812;47.698;17.726;2022-12-11T09:18:07;98939.78;;;1.01;100.00
71145;BME280;58812;47.698;17.726;2022-12-11T09:20:32;98945.03;;;1.01;100.00
71145;BME280;58812;47.698;17.726;2022-12-11T09:22:58;98957.63;;;1.09;100.00
71145;BME280;58812;47.698;17.726;2022-12-11T09:25:23;98949.09;;;1.05;99.47
71145;BME280;58812;47.698;17.726;2022-12-11T09:27:48;98951.72;;;1.05;99.46
71145;BME280;58812;47.698;17.726;2022-12-11T09:30:14;98944.78;;;1.04;100.00
71145;BME280;58812;47.698;17.726;2022-12-11T09:32:40;98962.75;;;1.10;99.45
71145;BME280;58812;47.698;17.726;2022-12-11T09:35:06;98944.44;;;0.97;97.82
71145;BME280;58812;47.698;17.726;2022-12-11T09:37:32;98952.47;;;0.96;98.05
71145;BME280;58812;47.698;17.726;2022-12-11T09:39:57;98954.72;;;1.00;98.09
71145;BME280;58812;47.698;17.726;2022-12-11T09:42:44;98956.16;;;1.04;98.37
71145;BME280;58812;47.698;17.726;2022-12-11T09:45:13;98961.56;;;1.03;97.57
71145;BME280;58812;47.698;17.726;2022-12-11T09:47:59;98969.22;;;1.06;97.04
71145;BME280;58812;47.698;17.726;2022-12-11T09:50:29;98953.66;;;1.03;96.40
71145;BME280;58812;47.698;17.726;2022-12-11T10:00:47;98933.78;;;1.10;95.93
71145;BME280;58812;47.698;17.726;2022-12-11T10:03:33;98928.75;;;1.07;95.57
71145;BME280;58812;47.698;17.726;2022-12-11T10:08:56;98971.87;;;1.17;94.98
71145;BME280;58812;47.698;17.726;2022-12-11T10:14:01;98947.44;;;1.15;94.15
71145;BME280;58812;47.698;17.726;2022-12-11T10:16:43;98970.06;;;1.18;94.38
71145;BME280;58812;47.698;17.726;2022-12-11T10:19:20;98955.56;;;1.23;94.73
71145;BME280;58812;47.698;17.726;2022-12-11T10:21:49;98938.81;;;1.13;94.00
71145;BME280;58812;47.698;17.726;2022-12-11T10:24:24;98956.06;;;1.17;93.65
71145;BME280;58812;47.698;17.726;2022-12-11T10:26:57;98961.09;;;1.20;93.25
71145;BME280;58812;47.698;17.726;2022-12-11T10:29:23;98947.19;;;1.18;93.19
71145;BME280;58812;47.698;17.726;2022-12-11T10:31:58;98942.28;;;1.25;92.81
71145;BME280;58812;47.698;17.726;2022-12-11T10:36:55;98947.44;;;1.38;93.14
71145;BME280;58812;47.698;17.726;2022-12-11T10:39:21;98940.84;;;1.43;92.90
71145;BME280;58812;47.698;17.726;2022-12-11T10:41:51;98949.13;;;1.27;91.09
71145;BME280;58812;47.698;17.726;2022-12-11T10:44:20;98938.09;;;1.33;91.88
71145;BME280;58812;47.698;17.726;2022-12-11T10:46:48;98953.28;;;1.41;91.97
71145;BME280;58812;47.698;17.726;2022-12-11T10:49:27;98933.06;;;1.30;90.80
71145;BME280;58812;47.698;17.726;2022-12-11T10:51:54;98949.25;;;1.26;91.28
71145;BME280;58812;47.698;17.726;2022-12-11T10:54:39;98937.38;;;1.31;91.04
71145;BME280;58812;47.698;17.726;2022-12-11T10:57:06;98950.19;;;1.36;90.49
71145;BME280;58812;47.698;17.726;2022-12-11T10:59:37;98943.34;;;1.33;90.57
71145;BME280;58812;47.698;17.726;2022-12-11T11:02:04;98954.59;;;1.47;90.96
71145;BME280;58812;47.698;17.726;2022-12-11T11:04:35;98946.00;;;1.33;89.71
71145;BME280;58812;47.698;17.726;2022-12-11T11:07:11;98941.78;;;1.53;89.83
71145;BME280;58812;47.698;17.726;2022-12-11T11:09:38;98953.16;;;1.54;89.22
71145;BME280;58812;47.698;17.726;2022-12-11T11:12:23;98949.31;;;1.69;87.94
71145;BME280;58812;47.698;17.726;2022-12-11T11:15:09;98952.16;;;1.77;87.64
71145;BME280;58812;47.698;17.726;2022-12-11T11:17:47;98943.38;;;1.88;87.65
71145;BME280;58812;47.698;17.726;2022-12-11T11:20:17;98956.09;;;1.94;87.30
71145;BME280;58812;47.698;17.726;2022-12-11T11:22:45;98938.28;;;1.64;87.41
71145;BME280;58812;47.698;17.726;2022-12-11T11:25:19;98939.72;;;1.68;88.31
71145;BME280;58812;47.698;17.726;2022-12-11T11:27:54;98946.69;;;1.69;88.28
71145;BME280;58812;47.698;17.726;2022-12-11T11:30:23;98937.22;;;1.67;88.84
71145;BME280;58812;47.698;17.726;2022-12-11T11:32:52;98933.03;;;1.53;88.24
71145;BME280;58812;47.698;17.726;2022-12-11T11:35:22;98944.31;;;1.55;89.20
71145;BME280;58812;47.698;17.726;2022-12-11T11:38:04;98946.94;;;1.55;88.55
71145;BME280;58812;47.698;17.726;2022-12-11T11:41:02;98948.34;;;1.59;89.01
71145;BME280;58812;47.698;17.726;2022-12-11T11:43:43;98947.19;;;1.41;88.64
71145;BME280;58812;47.698;17.726;2022-12-11T11:46:16;98956.41;;;1.46;89.33
71145;BME280;58812;47.698;17.726;2022-12-11T11:51:46;98966.72;;;1.49;89.33
71145;BME280;58812;47.698;17.726;2022-12-11T11:54:29;98964.91;;;1.61;90.29
71145;BME280;58812;47.698;17.726;2022-12-11T11:56:56;98963.47;;;1.68;89.70
71145;BME280;58812;47.698;17.726;2022-12-11T11:59:32;98972.72;;;1.63;88.66
71145;BME280;58812;47.698;17.726;2022-12-11T12:02:00;98955.56;;;1.57;87.94
71145;BME280;58812;47.698;17.726;2022-12-11T12:04:31;98957.25;;;1.47;87.15
71145;BME280;58812;47.698;17.726;2022-12-11T12:07:27;98964.44;;;1.45;88.01
71145;BME280;58812;47.698;17.726;2022-12-11T12:13:12;98968.06;;;1.44;87.98
71145;BME280;58812;47.698;17.726;2022-12-11T12:15:50;98972.13;;;1.37;88.08
71145;BME280;58812;47.698;17.726;2022-12-11T12:26:37;98975.47;;;1.16;88.39
71145;BME280;58812;47.698;17.726;2022-12-11T12:32:07;98972.59;;;1.08;88.54
71145;BME280;58812;47.698;17.726;2022-12-11T12:45:31;98983.72;;;1.00;89.17
71145;BME280;58812;47.698;17.726;2022-12-11T12:48:01;98976.19;;;0.96;88.49
71145;BME280;58812;47.698;17.726;2022-12-11T12:50:41;98996.03;;;0.89;87.73
71145;BME280;58812;47.698;17.726;2022-12-11T12:53:15;98991.84;;;0.86;88.47
71145;BME280;58812;47.698;17.726;2022-12-11T12:55:42;98994.59;;;0.85;88.03
71145;BME280;58812;47.698;17.726;2022-12-11T12:58:24;98996.84;;;0.78;87.69
71145;BME280;58812;47.698;17.726;2022-12-11T13:00:51;98994.09;;;0.79;87.97
71145;BME280;58812;47.698;17.726;2022-12-11T13:03:20;99000.53;;;0.75;87.59
71145;BME280;58812;47.698;17.726;2022-12-11T13:11:11;99011.38;;;0.84;87.70
71145;BME280;58812;47.698;17.726;2022-12-11T13:13:44;99011.56;;;0.80;86.69
71145;BME280;58812;47.698;17.726;2022-12-11T13:18:39;99012.53;;;0.79;86.77
71145;BME280;58812;47.698;17.726;2022-12-11T13:21:25;99017.09;;;0.77;87.24
71145;BME280;58812;47.698;17.726;2022-12-11T13:23:52;99024.87;;;0.79;87.41
71145;BME280;58812;47.698;17.726;2022-12-11T13:26:28;99026.75;;;0.77;87.69
71145;BME280;58812;47.698;17.726;2022-12-11T13:28:55;99032.72;;;0.68;86.69
71145;BME280;58812;47.698;17.726;2022-12-11T13:31:29;99037.62;;;0.61;86.09
71145;BME280;58812;47.698;17.726;2022-12-11T13:34:01;99041.22;;;0.60;86.47
71145;BME280;58812;47.698;17.726;2022-12-11T13:36:33;99049.63;;;0.65;87.05
71145;BME280;58812;47.698;17.726;2022-12-11T13:39:06;99045.03;;;0.56;86.29
71145;BME280;58812;47.698;17.726;2022-12-11T13:41:34;99041.44;;;0.57;85.87
71145;BME280;58812;47.698;17.726;2022-12-11T13:44:04;99052.19;;;0.54;85.80
71145;BME280;58812;47.698;17.726;2022-12-11T13:46:34;99057.47;;;0.54;86.11
71145;BME280;58812;47.698;17.726;2022-12-11T13:49:03;99055.75;;;0.53;86.52
71145;BME280;58812;47.698;17.726;2022-12-11T13:51:32;99061.28;;;0.50;86.83
71145;BME280;58812;47.698;17.726;2022-12-11T13:54:16;99061.28;;;0.50;86.57
71145;BME280;58812;47.698;17.726;2022-12-11T13:56:56;99056.22;;;0.47;85.75
71145;BME280;58812;47.698;17.726;2022-12-11T13:59:35;99065.81;;;0.48;86.17
71145;BME280;58812;47.698;17.726;2022-12-11T14:04:51;99060.03;;;0.43;86.50
71145;BME280;58812;47.698;17.726;2022-12-11T14:07:34;99068.91;;;0.42;86.47
71145;BME280;58812;47.698;17.726;2022-12-11T14:10:07;99072.38;;;0.42;86.26
71145;BME280;58812;47.698;17.726;2022-12-11T14:12:34;99074.38;;;0.39;86.69
71145;BME280;58812;47.698;17.726;2022-12-11T14:15:02;99075.44;;;0.36;85.79
71145;BME280;58812;47.698;17.726;2022-12-11T14:17:31;99083.66;;;0.32;86.04
71145;BME280;58812;47.698;17.726;2022-12-11T14:20:00;99092.28;;;0.34;86.47
71145;BME280;58812;47.698;17.726;2022-12-11T14:22:29;99093.25;;;0.33;86.46
71145;BME280;58812;47.698;17.726;2022-12-11T14:25:00;99087.47;;;0.28;86.13